createdAt,value
2018-09-04T00:02:20.808Z,68.37
2018-09-04T00:05:03.093Z,70.70
2018-09-04T00:07:32.292Z,70.20
2018-09-04T00:10:00.765Z,68.20
2018-09-04T00:12:29.720Z,68.13
2018-09-04T00:15:01.333Z,70.10
2018-09-04T00:17:30.277Z,71.03
2018-09-04T00:20:10.956Z,66.43
2018-09-04T00:22:39.903Z,77.80
2018-09-04T00:25:08.444Z,70.53
2018-09-04T00:27:37.605Z,71.90
2018-09-04T00:30:19.404Z,75.83
2018-09-04T00:32:48.143Z,69.00
2018-09-04T00:35:17.099Z,71.40
2018-09-04T00:37:46.016Z,74.93
2018-09-04T00:40:14.884Z,74.13
2018-09-04T00:42:43.798Z,73.70
2018-09-04T00:45:26.296Z,67.13
2018-09-04T00:47:55.215Z,69.43
2018-09-04T00:50:24.329Z,72.47
2018-09-04T00:52:53.447Z,72.33
2018-09-04T00:55:22.224Z,77.03
2018-09-04T00:57:51.160Z,70.60
2018-09-04T01:00:25.612Z,78.17
2018-09-04T01:02:55.384Z,74.07
2018-09-04T01:05:25.414Z,73.23
2018-09-04T01:07:54.756Z,75.07
2018-09-04T01:10:36.728Z,71.63
2018-09-04T01:13:06.136Z,75.80
2018-09-04T01:15:35.076Z,74.57
2018-09-04T01:18:03.901Z,73.93
2018-09-04T01:20:33.012Z,69.57
2018-09-04T01:23:01.920Z,75.33
2018-09-04T01:25:43.439Z,81.13
2018-09-04T01:28:12.341Z,70.23
2018-09-04T01:30:41.244Z,77.17
2018-09-04T01:33:10.526Z,88.83
2018-09-04T01:35:40.749Z,76.90
2018-09-04T01:38:09.225Z,78.83
2018-09-04T01:40:50.559Z,79.50
2018-09-04T01:43:19.017Z,84.30
2018-09-04T01:45:47.941Z,81.03
2018-09-04T01:48:17.139Z,80.03
2018-09-04T01:50:49.966Z,81.67
2018-09-04T01:53:18.911Z,94.43
2018-09-04T01:55:50.959Z,79.87
2018-09-04T01:58:19.916Z,85.33
2018-09-04T02:00:53.454Z,84.30
2018-09-04T02:03:23.101Z,85.33
2018-09-04T02:05:57.007Z,88.57
2018-09-04T02:08:25.941Z,85.17
2018-09-04T02:11:07.930Z,83.73
2018-09-04T02:13:36.850Z,82.80
2018-09-04T02:16:05.911Z,88.23
2018-09-04T02:18:34.822Z,82.90
2018-09-04T02:21:05.688Z,80.50
2018-09-04T02:23:34.873Z,86.27
2018-09-04T02:26:16.243Z,80.37
2018-09-04T02:28:44.967Z,87.73
2018-09-04T02:31:13.891Z,92.70
2018-09-04T02:33:42.431Z,93.27
2018-09-04T02:36:14.360Z,85.30
2018-09-04T02:38:43.269Z,93.70
2018-09-04T02:41:16.264Z,96.23
2018-09-04T02:43:45.450Z,89.27
2018-09-04T02:46:27.090Z,89.30
2018-09-04T02:48:55.841Z,86.10
2018-09-04T02:51:24.755Z,84.20
2018-09-04T02:53:53.738Z,82.90
2018-09-04T02:56:23.456Z,90.20
2018-09-04T02:58:52.035Z,87.63
2018-09-04T03:01:26.742Z,83.63
2018-09-04T03:03:55.483Z,88.93
2018-09-04T03:06:36.155Z,84.10
2018-09-04T03:09:05.987Z,84.23
2018-09-04T03:11:34.462Z,84.93
2018-09-04T03:14:03.401Z,91.43
2018-09-04T03:16:32.775Z,90.83
2018-09-04T03:19:01.246Z,92.10
2018-09-04T03:21:38.483Z,90.47
2018-09-04T03:24:07.778Z,97.33
2018-09-04T03:26:38.001Z,96.00
2018-09-04T03:29:07.041Z,96.33
2018-09-04T03:31:48.497Z,100.53
2018-09-04T03:34:17.455Z,101.50
2018-09-04T03:36:46.053Z,95.23
2018-09-04T03:39:14.913Z,95.17
2018-09-04T03:41:45.846Z,107.87
2018-09-04T03:44:14.388Z,105.60
2018-09-04T03:46:55.081Z,112.00
2018-09-04T03:49:24.043Z,113.00
2018-09-04T03:51:53.065Z,108.33
2018-09-04T03:54:22.060Z,109.43
2018-09-04T03:56:54.014Z,104.20
2018-09-04T03:59:24.511Z,98.93
2018-09-04T04:01:57.081Z,99.83
2018-09-04T04:04:25.637Z,104.07
2018-09-04T04:06:59.218Z,107.43
2018-09-04T04:09:27.833Z,112.47
2018-09-04T04:12:01.152Z,109.13
2018-09-04T04:14:30.356Z,101.77
2018-09-04T04:17:03.043Z,108.23
2018-09-04T04:19:32.050Z,109.73
2018-09-04T04:22:05.339Z,119.53
2018-09-04T04:24:33.839Z,111.53
2018-09-04T04:27:02.828Z,119.13
2018-09-04T04:29:31.945Z,102.53
2018-09-04T04:32:00.969Z,104.50
2018-09-04T04:34:29.541Z,91.80
2018-09-04T04:36:58.309Z,86.73
2018-09-04T04:39:27.275Z,83.43
2018-09-04T04:41:56.330Z,81.67
2018-09-04T04:44:25.178Z,84.63
2018-09-04T04:46:54.243Z,88.43
2018-09-04T04:49:23.210Z,96.80
2018-09-04T04:51:52.048Z,93.00
2018-09-04T04:54:33.285Z,100.27
2018-09-04T04:57:02.342Z,91.57
2018-09-04T04:59:30.873Z,91.73
2018-09-04T05:01:59.444Z,90.53
2018-09-04T05:04:30.521Z,94.60
2018-09-04T05:06:59.032Z,97.40
2018-09-04T05:09:32.073Z,90.87
2018-09-04T05:12:00.854Z,93.00
2018-09-04T05:14:36.725Z,92.07
2018-09-04T05:17:05.995Z,81.73
2018-09-04T05:19:37.564Z,92.50
2018-09-04T05:22:06.137Z,84.13
2018-09-04T05:24:39.149Z,80.63
2018-09-04T05:27:08.374Z,91.23
2018-09-04T05:29:42.185Z,87.37
2018-09-04T05:32:32.103Z,80.23
2018-09-04T05:35:01.109Z,78.43
2018-09-04T05:37:30.675Z,83.07
2018-09-04T05:39:59.222Z,78.03
2018-09-04T05:42:33.374Z,78.53
2018-09-04T05:45:02.349Z,74.00
2018-09-04T05:47:35.335Z,76.33
2018-09-04T05:50:05.001Z,75.63
2018-09-04T05:52:33.998Z,81.20
2018-09-04T05:55:03.236Z,81.77
2018-09-04T05:57:31.777Z,84.97
2018-09-04T06:00:00.845Z,82.03
2018-09-04T06:02:30.922Z,73.53
2018-09-04T06:05:02.132Z,77.10
2018-09-04T06:07:30.930Z,72.93
2018-09-04T06:10:09.969Z,74.33
2018-09-04T06:12:38.934Z,75.97
2018-09-04T06:15:08.575Z,73.47
2018-09-04T06:17:37.585Z,74.60
2018-09-04T06:20:11.207Z,76.27
2018-09-04T06:22:39.640Z,85.40
2018-09-04T06:25:20.522Z,75.10
2018-09-04T06:27:49.307Z,73.70
2018-09-04T06:30:18.352Z,72.90
2018-09-04T06:32:47.305Z,64.37
2018-09-04T06:35:18.466Z,72.43
2018-09-04T06:37:47.470Z,70.03
2018-09-04T06:40:22.939Z,65.77
2018-09-04T06:42:52.317Z,69.03
2018-09-04T06:45:24.624Z,69.37
2018-09-04T06:47:53.602Z,68.27
2018-09-04T06:50:27.816Z,66.70
2018-09-04T06:52:56.921Z,67.80
2018-09-04T06:55:28.965Z,70.03
2018-09-04T06:57:58.681Z,72.27
2018-09-04T07:00:42.113Z,66.17
2018-09-04T07:03:11.561Z,67.27
2018-09-04T07:05:40.838Z,64.83
2018-09-04T07:08:09.831Z,69.60
2018-09-04T07:10:38.613Z,74.10
2018-09-04T07:13:07.599Z,71.07
2018-09-04T07:15:39.873Z,72.07
2018-09-04T07:18:09.338Z,64.87
2018-09-04T07:20:50.726Z,65.45
2018-09-04T07:23:20.091Z,66.70
2018-09-04T07:25:49.055Z,64.00
2018-09-04T07:28:18.032Z,75.75
2018-09-04T07:30:48.946Z,70.45
2018-09-04T07:33:17.544Z,77.27
2018-09-04T07:35:53.157Z,75.93
2018-09-04T07:38:22.424Z,70.85
2018-09-04T07:40:54.418Z,72.65
2018-09-04T07:43:23.051Z,75.42
2018-09-04T07:45:56.438Z,72.70
2018-09-04T07:48:25.300Z,75.78
2018-09-04T07:51:00.954Z,72.95
2018-09-04T07:53:29.995Z,76.35
2018-09-04T07:56:02.981Z,80.07
2018-09-04T07:58:31.970Z,73.65
2018-09-04T08:01:04.861Z,78.45
2018-09-04T08:03:33.687Z,78.80
2018-09-04T08:06:08.633Z,81.82
2018-09-04T08:08:37.886Z,78.00
2018-09-04T08:13:52.031Z,82.87
2018-09-04T08:16:20.617Z,85.27
2018-09-04T08:18:49.140Z,85.50
2018-09-04T08:21:18.472Z,81.92
2018-09-04T08:23:47.014Z,87.37
2018-09-04T08:26:28.409Z,84.87
2018-09-04T08:31:31.340Z,86.17
2018-09-04T08:34:00.401Z,93.07
2018-09-04T08:39:08.021Z,89.00
2018-09-04T08:41:37.071Z,91.90
2018-09-04T08:44:06.404Z,89.33
2018-09-04T08:46:34.953Z,87.17
2018-09-04T08:49:03.496Z,86.40
2018-09-04T08:51:34.213Z,85.70
2018-09-04T08:54:03.185Z,89.70
2018-09-04T08:56:36.049Z,81.70
2018-09-04T08:59:04.899Z,77.12
2018-09-04T09:01:38.258Z,71.60
2018-09-04T09:04:07.249Z,69.87
2018-09-04T09:06:41.332Z,70.47
2018-09-04T09:09:10.745Z,72.62
2018-09-04T09:11:43.750Z,71.23
2018-09-04T09:14:13.022Z,71.55
2018-09-04T09:16:50.353Z,73.75
2018-09-04T09:19:18.789Z,69.95
2018-09-04T09:21:50.541Z,77.50
2018-09-04T09:24:19.730Z,70.07
2018-09-04T09:26:57.584Z,74.30
2018-09-04T09:29:26.885Z,70.72
2018-09-04T09:31:55.950Z,77.37
2018-09-04T09:34:24.513Z,68.97
2018-09-04T09:36:58.612Z,77.57
2018-09-04T09:39:27.175Z,68.07
2018-09-04T09:42:10.906Z,73.37
2018-09-04T09:44:40.721Z,69.50
2018-09-04T09:47:09.709Z,65.27
2018-09-04T09:49:38.685Z,77.50
2018-09-04T09:52:11.300Z,68.87
2018-09-04T09:54:39.849Z,73.43
2018-09-04T09:57:21.190Z,67.70
2018-09-04T09:59:50.452Z,68.60
2018-09-04T10:02:19.470Z,69.50
2018-09-04T10:04:48.186Z,67.10
2018-09-04T10:07:16.910Z,62.10
2018-09-04T10:09:46.136Z,53.20
2018-09-04T10:12:28.135Z,51.77
2018-09-04T10:14:59.210Z,57.60
2018-09-04T10:17:28.418Z,52.57
2018-09-04T10:19:57.043Z,52.20
2018-09-04T10:22:26.105Z,51.63
2018-09-04T10:24:55.279Z,53.37
2018-09-04T10:27:28.657Z,51.60
2018-09-04T10:29:59.610Z,47.67
2018-09-04T10:32:28.696Z,51.80
2018-09-04T10:34:57.233Z,50.93
2018-09-04T10:37:30.526Z,43.43
2018-09-04T10:40:05.181Z,39.80
2018-09-04T10:42:34.795Z,42.03
2018-09-04T10:45:04.594Z,52.27
2018-09-04T10:47:46.226Z,45.90
2018-09-04T10:50:15.577Z,45.13
2018-09-04T10:52:44.599Z,48.10
2018-09-04T10:55:13.220Z,42.25
2018-09-04T10:57:42.244Z,44.93
2018-09-04T11:00:10.719Z,44.47
2018-09-04T11:02:45.414Z,44.38
2018-09-04T11:05:15.064Z,46.20
2018-09-04T11:07:48.067Z,41.95
2018-09-04T11:10:16.769Z,44.93
2018-09-04T11:12:59.717Z,40.37
2018-09-04T11:15:28.263Z,46.18
2018-09-04T11:17:57.291Z,41.08
2018-09-04T11:20:26.566Z,43.60
2018-09-04T11:25:31.842Z,48.33
2018-09-04T11:28:00.676Z,38.97
2018-09-04T11:30:29.981Z,37.73
2018-09-04T11:33:01.410Z,38.13
2018-09-04T11:35:31.195Z,36.90
2018-09-04T11:38:04.138Z,45.77
2018-09-04T11:40:33.316Z,50.78
2018-09-04T11:43:08.140Z,45.00
2018-09-04T11:45:37.184Z,35.60
2018-09-04T11:48:10.057Z,36.13
2018-09-04T11:50:39.429Z,33.77
2018-09-04T11:53:21.903Z,33.30
2018-09-04T11:55:51.360Z,34.80
2018-09-04T11:58:20.407Z,36.00
2018-09-04T12:00:49.715Z,36.87
2018-09-04T12:03:20.381Z,33.83
2018-09-04T12:05:49.412Z,35.20
2018-09-04T12:08:22.230Z,39.40
2018-09-04T12:10:51.113Z,35.53
2018-09-04T12:13:33.126Z,36.47
2018-09-04T12:16:02.481Z,33.30
2018-09-04T12:18:31.604Z,38.92
2018-09-04T12:21:14.564Z,35.50
2018-09-04T12:23:43.620Z,34.90
2018-09-04T12:26:12.690Z,37.67
2018-09-04T12:28:42.244Z,35.80
2018-09-04T12:31:11.310Z,38.43
2018-09-04T12:33:39.919Z,35.25
2018-09-04T12:36:09.322Z,38.15
2018-09-04T12:38:39.740Z,32.93
2018-09-04T12:41:14.594Z,34.78
2018-09-04T12:43:44.974Z,35.00
2018-09-04T12:46:13.593Z,30.25
2018-09-04T12:48:47.341Z,29.55
2018-09-04T12:51:16.793Z,33.53
2018-09-04T12:53:46.004Z,29.20
2018-09-04T12:56:15.060Z,26.30
2018-09-04T12:58:49.385Z,31.60
2018-09-04T13:01:17.907Z,34.45
2018-09-04T13:03:59.353Z,31.70
2018-09-04T13:06:28.716Z,29.37
2018-09-04T13:08:57.263Z,30.27
2018-09-04T13:11:25.886Z,30.92
2018-09-04T13:13:57.565Z,31.82
2018-09-04T13:16:26.570Z,31.80
2018-09-04T13:18:59.989Z,29.90
2018-09-04T13:21:29.370Z,29.00
2018-09-04T13:24:02.073Z,27.23
2018-09-04T13:26:31.162Z,27.67
2018-09-04T13:29:05.115Z,31.70
2018-09-04T13:31:34.149Z,32.15
2018-09-04T13:34:08.075Z,32.30
2018-09-04T13:36:37.035Z,27.52
2018-09-04T13:39:09.567Z,26.30
2018-09-04T13:41:38.105Z,24.47
2018-09-04T13:44:13.678Z,31.00
2018-09-04T13:46:42.711Z,29.03
2018-09-04T13:49:15.987Z,23.80
2018-09-04T13:51:45.011Z,23.92
2018-09-04T13:54:18.389Z,22.67
2018-09-04T13:56:47.347Z,25.13
2018-09-04T13:59:21.030Z,24.87
2018-09-04T14:01:50.449Z,23.17
2018-09-04T14:04:23.766Z,22.82
2018-09-04T14:06:52.762Z,25.52
2018-09-04T14:09:27.605Z,23.70
2018-09-04T14:11:56.132Z,22.67
2018-09-04T14:14:38.127Z,21.60
2018-09-04T14:17:10.243Z,20.32
2018-09-04T14:19:38.939Z,19.90
2018-09-04T14:22:07.978Z,18.02
2018-09-04T14:24:36.503Z,18.17
2018-09-04T14:27:05.906Z,18.10
2018-09-04T14:29:53.780Z,19.30
2018-09-04T14:32:06.356Z,16.77
2018-09-04T14:34:39.494Z,20.52
2018-09-04T14:37:08.229Z,19.60
2018-09-04T14:39:41.224Z,20.67
2018-09-04T14:42:10.349Z,20.35
2018-09-04T14:44:44.965Z,18.62
2018-09-04T14:47:14.406Z,18.60
2018-09-04T14:49:50.198Z,14.35
2018-09-04T14:52:18.902Z,15.50
2018-09-04T14:54:52.395Z,18.12
2018-09-04T14:57:21.421Z,19.20
2018-09-04T14:59:54.925Z,22.60
2018-09-04T15:02:24.156Z,19.82
2018-09-04T15:04:56.271Z,22.67
2018-09-04T15:07:25.660Z,21.27
2018-09-04T15:09:59.014Z,24.60
2018-09-04T15:12:27.551Z,22.87
2018-09-04T15:15:00.459Z,20.95
2018-09-04T15:17:29.036Z,19.85
2018-09-04T15:20:11.493Z,22.07
2018-09-04T15:22:40.031Z,22.27
2018-09-04T15:25:09.602Z,19.30
2018-09-04T15:27:39.166Z,18.30
2018-09-04T15:30:12.541Z,17.05
2018-09-04T15:32:41.570Z,19.10
2018-09-04T15:35:22.929Z,22.82
2018-09-04T15:37:51.921Z,17.92
2018-09-04T15:40:20.812Z,20.00
2018-09-04T15:42:49.799Z,17.92
2018-09-04T15:45:19.900Z,18.10
2018-09-04T15:47:49.010Z,18.00
2018-09-04T15:50:30.693Z,20.17
2018-09-04T15:53:00.331Z,18.12
2018-09-04T15:55:29.669Z,19.85
2018-09-04T15:57:58.229Z,18.40
2018-09-04T16:00:45.053Z,20.70
2018-09-04T16:03:14.123Z,17.50
2018-09-04T16:08:48.393Z,21.50
2018-09-04T16:11:17.126Z,21.30
2018-09-04T16:13:45.791Z,21.63
2018-09-04T16:16:14.845Z,20.80
2018-09-04T16:18:43.464Z,24.00
2018-09-04T16:21:12.436Z,21.82
2018-09-04T16:23:42.922Z,20.37
2018-09-04T16:26:11.974Z,24.03
2018-09-04T16:28:41.114Z,23.52
2018-09-04T16:31:10.493Z,21.57
2018-09-04T16:33:52.187Z,20.73
2018-09-04T16:36:21.177Z,19.37
2018-09-04T16:38:50.762Z,18.10
2018-09-04T16:41:19.337Z,20.33
2018-09-04T16:43:51.621Z,18.17
2018-09-04T16:46:21.713Z,16.53
2018-09-04T16:48:54.817Z,19.10
2018-09-04T16:51:23.732Z,17.77
2018-09-04T16:54:05.270Z,15.60
2018-09-04T16:56:34.509Z,16.97
2018-09-04T16:59:03.094Z,17.23
2018-09-04T17:01:32.210Z,14.47
2018-09-04T17:04:03.357Z,18.23
2018-09-04T17:06:32.443Z,15.87
2018-09-04T17:09:05.974Z,13.97
2018-09-04T17:11:34.740Z,14.43
2018-09-04T17:14:16.216Z,15.47
2018-09-04T17:16:45.377Z,12.17
2018-09-04T17:19:14.387Z,13.07
2018-09-04T17:21:43.403Z,15.83
2018-09-04T17:24:15.010Z,14.00
2018-09-04T17:26:43.976Z,12.93
2018-09-04T17:29:16.961Z,13.37
2018-09-04T17:31:47.215Z,12.20
2018-09-04T17:34:19.778Z,12.77
2018-09-04T17:39:23.802Z,11.37
2018-09-04T17:41:52.617Z,11.17
2018-09-04T17:44:24.905Z,10.97
2018-09-04T17:46:54.053Z,15.67
2018-09-04T17:49:35.345Z,13.30
2018-09-04T17:52:03.932Z,14.10
2018-09-04T17:54:33.888Z,15.47
2018-09-04T17:57:02.878Z,13.30
2018-09-04T17:59:31.465Z,16.10
2018-09-04T18:02:00.461Z,17.17
2018-09-04T18:04:34.404Z,16.07
2018-09-04T18:07:03.439Z,17.73
2018-09-04T18:09:45.284Z,18.77
2018-09-04T18:12:13.828Z,19.57
2018-09-04T18:14:42.902Z,17.83
2018-09-04T18:17:12.085Z,17.97
2018-09-04T18:19:42.190Z,23.13
2018-09-04T18:22:10.726Z,22.73
2018-09-04T18:24:43.858Z,21.00
2018-09-04T18:27:13.366Z,21.00
2018-09-04T18:29:46.482Z,21.20
2018-09-04T18:32:15.453Z,22.23
2018-09-04T18:34:49.212Z,21.70
2018-09-04T18:37:17.696Z,24.23
2018-09-04T18:42:20.132Z,22.93
2018-09-04T18:44:49.409Z,23.67
2018-09-04T18:47:20.048Z,19.47
2018-09-04T18:49:49.161Z,20.47
2018-09-04T18:52:17.652Z,20.83
2018-09-04T18:54:46.626Z,20.63
2018-09-04T18:57:15.171Z,20.27
2018-09-04T18:59:44.121Z,23.93
2018-09-04T19:02:13.285Z,22.23
2018-09-04T19:04:41.845Z,18.37
2018-09-04T19:07:13.212Z,22.07
2018-09-04T19:09:42.193Z,21.20
2018-09-04T19:12:14.816Z,20.90
2018-09-04T19:14:44.000Z,22.50
2018-09-04T19:17:16.293Z,21.37
2018-09-04T19:19:44.977Z,19.93
2018-09-04T19:22:20.098Z,19.10
2018-09-04T19:24:49.101Z,19.27
2018-09-04T19:27:20.118Z,20.43
2018-09-04T19:29:49.579Z,18.50
2018-09-04T19:32:22.789Z,20.67
2018-09-04T19:34:51.801Z,15.87
2018-09-04T19:37:25.756Z,16.07
2018-09-04T19:39:54.700Z,17.77
2018-09-04T19:42:36.792Z,15.73
2018-09-04T19:45:05.937Z,18.63
2018-09-04T19:47:34.533Z,16.80
2018-09-04T19:50:03.709Z,17.40
2018-09-04T19:52:33.853Z,16.97
2018-09-04T19:55:02.925Z,17.87
2018-09-04T19:57:35.894Z,17.43
2018-09-04T20:00:05.533Z,17.63
2018-09-04T20:02:37.444Z,16.73
2018-09-04T20:05:06.968Z,19.23
2018-09-04T20:07:40.987Z,22.03
2018-09-04T20:10:09.994Z,18.07
2018-09-04T20:12:44.205Z,19.53
2018-09-04T20:15:13.197Z,18.03
2018-09-04T20:17:49.082Z,17.70
2018-09-04T20:20:18.075Z,19.23
2018-09-04T20:22:48.981Z,16.40
2018-09-04T20:25:17.511Z,16.97
2018-09-04T20:27:51.879Z,17.30
2018-09-04T20:30:20.415Z,18.20
2018-09-04T20:32:55.029Z,22.03
2018-09-04T20:35:23.584Z,19.50
2018-09-04T20:37:57.454Z,18.87
2018-09-04T20:40:26.746Z,20.37
2018-09-04T20:42:59.976Z,18.33
2018-09-04T20:45:29.029Z,18.13
2018-09-04T20:48:10.633Z,18.03
2018-09-04T20:50:40.029Z,21.33
2018-09-04T20:53:09.025Z,19.47
2018-09-04T20:55:38.359Z,19.27
2018-09-04T20:58:22.186Z,18.63
2018-09-04T21:01:01.941Z,19.10
2018-09-04T21:03:36.139Z,20.50
2018-09-04T21:06:19.890Z,19.43
2018-09-04T21:08:59.029Z,21.30
2018-09-04T21:11:28.019Z,21.07
2018-09-04T21:13:56.553Z,21.20
2018-09-04T21:16:25.874Z,21.50
2018-09-04T21:18:54.902Z,22.17
2018-09-04T21:21:23.892Z,23.50
2018-09-04T21:23:52.874Z,23.87
2018-09-04T21:26:24.141Z,22.37
2018-09-04T21:28:54.489Z,22.87
2018-09-04T21:31:36.614Z,22.57
2018-09-04T21:34:06.194Z,20.57
2018-09-04T21:36:35.150Z,23.77
2018-09-04T21:39:05.250Z,24.53
2018-09-04T21:41:34.518Z,24.47
2018-09-04T21:44:03.120Z,24.50
2018-09-04T21:46:35.434Z,24.73
2018-09-04T21:49:04.226Z,20.90
2018-09-04T21:51:45.830Z,25.10
2018-09-04T21:54:14.850Z,23.53
2018-09-04T21:56:44.100Z,23.87
2018-09-04T21:59:13.070Z,22.63
2018-09-04T22:01:42.162Z,22.13
2018-09-04T22:04:10.946Z,22.20
2018-09-04T22:06:44.568Z,22.70
2018-09-04T22:09:13.077Z,23.83
2018-09-04T22:11:47.136Z,26.80
2018-09-04T22:14:15.651Z,23.63
2018-09-04T22:16:49.134Z,23.40
2018-09-04T22:19:17.910Z,23.77
2018-09-04T22:21:50.420Z,30.30
2018-09-04T22:24:19.253Z,29.03
2018-09-04T22:26:48.470Z,28.30
2018-09-04T22:29:17.441Z,29.03
2018-09-04T22:31:46.489Z,34.20
2018-09-04T22:34:15.714Z,33.53
2018-09-04T22:36:44.224Z,33.67
2018-09-04T22:39:13.236Z,32.27
2018-09-04T22:41:42.232Z,31.80
2018-09-04T22:44:11.314Z,29.00
2018-09-04T22:46:39.956Z,30.80
2018-09-04T22:49:12.134Z,32.93
2018-09-04T22:51:40.732Z,29.60
2018-09-04T22:54:13.390Z,28.90
2018-09-04T22:56:42.625Z,31.03
2018-09-04T22:59:24.086Z,31.00
2018-09-04T23:01:53.390Z,31.50
2018-09-04T23:04:22.665Z,29.27
2018-09-04T23:06:51.601Z,27.73
2018-09-04T23:09:20.126Z,26.93
2018-09-04T23:11:49.070Z,28.47
2018-09-04T23:14:22.376Z,31.67
2018-09-04T23:16:51.309Z,25.40
2018-09-04T23:19:24.670Z,28.47
2018-09-04T23:21:53.888Z,25.77
2018-09-04T23:24:36.212Z,25.50
2018-09-04T23:27:05.357Z,28.43
2018-09-04T23:29:34.325Z,26.80
2018-09-04T23:32:03.324Z,27.37
2018-09-04T23:34:32.470Z,27.07
2018-09-04T23:37:00.972Z,27.43
2018-09-04T23:39:34.501Z,27.70
2018-09-04T23:42:03.737Z,29.70
2018-09-04T23:44:37.453Z,27.67
2018-09-04T23:47:06.434Z,26.33
2018-09-04T23:49:39.708Z,25.57
2018-09-04T23:52:09.010Z,25.23
2018-09-04T23:54:42.053Z,24.43
2018-09-04T23:57:10.980Z,27.27
2018-09-04T23:59:44.905Z,24.10
